createdAt,value
2022-12-11T00:01:24.899Z,96.85
2022-12-11T00:03:51.746Z,96.91
2022-12-11T00:06:21.133Z,96.76
2022-12-11T00:08:50.655Z,96.45
2022-12-11T00:11:17.390Z,96.64
2022-12-11T00:13:44.204Z,96.96
2022-12-11T00:16:11.115Z,97.03
2022-12-11T00:18:38.076Z,96.89
2022-12-11T00:21:06.660Z,96.75
2022-12-11T00:23:35.633Z,96.76
2022-12-11T00:26:10.493Z,96.89
2022-12-11T00:28:36.969Z,96.49
2022-12-11T00:31:05.719Z,96.64
2022-12-11T00:33:32.200Z,96.41
2022-12-11T00:35:58.745Z,96.63
2022-12-11T00:38:25.211Z,96.45
2022-12-11T00:40:52.006Z,96.67
2022-12-11T00:43:18.453Z,96.94
2022-12-11T00:45:46.858Z,96.54
2022-12-11T00:48:13.556Z,96.34
2022-12-11T00:50:40.808Z,96.69
2022-12-11T00:53:08.066Z,96.74
2022-12-11T00:55:40.034Z,96.44
2022-12-11T00:58:07.134Z,96.82
2022-12-11T01:00:34.142Z,96.93
2022-12-11T01:03:01.147Z,96.87
2022-12-11T01:05:27.901Z,96.94
2022-12-11T01:07:54.390Z,97.26
2022-12-11T01:10:23.997Z,97.38
2022-12-11T01:12:55.895Z,97.28
2022-12-11T01:15:25.220Z,97.61
2022-12-11T01:17:52.506Z,97.50
2022-12-11T01:20:20.932Z,97.63
2022-12-11T01:22:47.503Z,97.48
2022-12-11T01:25:14.428Z,97.58
2022-12-11T01:27:40.877Z,97.49
2022-12-11T01:30:08.429Z,97.68
2022-12-11T01:32:35.890Z,97.69
2022-12-11T01:35:08.224Z,97.83
2022-12-11T01:37:35.109Z,98.37
2022-12-11T01:40:02.213Z,97.96
2022-12-11T01:42:29.624Z,98.15
2022-12-11T01:45:23.870Z,98.52
2022-12-11T01:47:59.224Z,98.51
2022-12-11T01:50:26.267Z,98.53
2022-12-11T01:52:53.302Z,98.51
2022-12-11T01:55:20.646Z,98.56
2022-12-11T01:57:50.560Z,98.43
2022-12-11T02:00:17.569Z,98.51
2022-12-11T02:02:44.414Z,98.34
2022-12-11T02:05:11.882Z,98.87
2022-12-11T02:07:52.445Z,98.47
2022-12-11T02:10:19.338Z,98.83
2022-12-11T02:12:57.964Z,98.56
2022-12-11T02:15:40.261Z,98.87
2022-12-11T02:18:12.595Z,98.51
2022-12-11T02:21:06.611Z,98.61
2022-12-11T02:23:58.360Z,98.33
2022-12-11T02:26:34.634Z,98.55
2022-12-11T02:29:04.198Z,98.53
2022-12-11T02:31:46.883Z,98.47
2022-12-11T02:34:28.705Z,98.50
2022-12-11T02:37:00.135Z,98.16
2022-12-11T02:39:28.404Z,98.35
2022-12-11T02:41:56.426Z,98.01
2022-12-11T02:44:27.042Z,97.90
2022-12-11T02:46:54.944Z,97.91
2022-12-11T02:49:23.276Z,97.68
2022-12-11T02:51:52.318Z,97.35
2022-12-11T02:54:25.289Z,97.51
2022-12-11T02:56:57.713Z,97.29
2022-12-11T02:59:32.891Z,97.07
2022-12-11T03:01:59.528Z,96.98
2022-12-11T03:04:26.246Z,97.49
2022-12-11T03:06:59.944Z,97.27
2022-12-11T03:09:28.414Z,96.80
2022-12-11T03:11:55.002Z,96.98
2022-12-11T03:14:21.488Z,97.08
2022-12-11T03:17:05.708Z,97.33
2022-12-11T03:19:37.195Z,96.95
2022-12-11T03:22:11.018Z,96.94
2022-12-11T03:24:59.617Z,96.82
2022-12-11T03:27:42.448Z,96.65
2022-12-11T03:30:14.239Z,96.54
2022-12-11T03:32:49.291Z,96.79
2022-12-11T03:35:33.906Z,96.45
2022-12-11T03:38:11.822Z,96.22
2022-12-11T03:40:42.199Z,96.35
2022-12-11T03:43:10.891Z,96.37
2022-12-11T03:45:39.122Z,96.22
2022-12-11T03:48:07.272Z,96.12
2022-12-11T03:50:35.376Z,96.48
2022-12-11T03:53:03.790Z,96.69
2022-12-11T03:55:32.823Z,96.37
2022-12-11T03:57:59.361Z,96.68
2022-12-11T04:00:25.854Z,96.58
2022-12-11T04:03:13.527Z,96.50
2022-12-11T04:05:53.337Z,96.68
2022-12-11T04:08:21.157Z,95.93
2022-12-11T04:10:47.984Z,96.19
2022-12-11T04:13:14.474Z,95.97
2022-12-11T04:15:41.271Z,96.38
2022-12-11T04:18:26.639Z,96.12
2022-12-11T04:21:13.356Z,96.51
2022-12-11T04:23:58.676Z,96.31
2022-12-11T04:26:25.416Z,96.55
2022-12-11T04:28:51.917Z,96.33
2022-12-11T04:31:21.583Z,96.34
2022-12-11T04:33:48.121Z,96.42
2022-12-11T04:36:15.175Z,96.27
2022-12-11T04:38:41.669Z,95.96
2022-12-11T04:41:11.284Z,96.34
2022-12-11T04:43:38.018Z,96.14
2022-12-11T04:46:09.994Z,96.24
2022-12-11T04:48:37.485Z,96.58
2022-12-11T04:51:04.421Z,96.08
2022-12-11T04:53:31.661Z,95.73
2022-12-11T04:55:58.148Z,95.89
2022-12-11T04:58:26.066Z,95.45
2022-12-11T05:00:53.042Z,95.16
2022-12-11T05:03:19.756Z,95.09
2022-12-11T05:05:51.184Z,94.71
2022-12-11T05:08:18.998Z,94.76
2022-12-11T05:10:50.066Z,94.89
2022-12-11T05:13:16.728Z,94.86
2022-12-11T05:15:43.173Z,94.61
2022-12-11T05:18:09.699Z,94.14
2022-12-11T05:20:36.223Z,94.30
2022-12-11T05:23:02.684Z,94.63
2022-12-11T05:25:29.139Z,94.70
2022-12-11T05:27:55.584Z,94.51
2022-12-11T05:30:22.029Z,94.65
2022-12-11T05:32:48.491Z,94.28
2022-12-11T05:35:15.120Z,94.01
2022-12-11T05:37:41.673Z,93.73
2022-12-11T05:40:08.937Z,93.74
2022-12-11T05:42:35.388Z,93.44
2022-12-11T05:45:01.816Z,93.52
2022-12-11T05:47:28.337Z,93.57
2022-12-11T05:49:54.740Z,93.81
2022-12-11T05:52:21.757Z,93.91
2022-12-11T05:54:50.434Z,94.19
2022-12-11T05:57:17.227Z,93.85
2022-12-11T05:59:43.688Z,93.65
2022-12-11T06:02:10.305Z,93.56
2022-12-11T06:04:36.781Z,93.70
2022-12-11T06:07:03.413Z,93.08
2022-12-11T06:09:30.000Z,92.90
2022-12-11T06:11:56.428Z,92.55
2022-12-11T06:14:22.848Z,92.53
2022-12-11T06:16:50.115Z,92.15
2022-12-11T06:19:18.431Z,91.75
2022-12-11T06:21:45.872Z,91.96
2022-12-11T06:24:12.520Z,92.72
2022-12-11T06:26:39.190Z,92.67
2022-12-11T06:29:09.186Z,92.86
2022-12-11T06:31:39.215Z,92.44
2022-12-11T06:34:06.049Z,92.49
2022-12-11T06:36:32.547Z,92.15
2022-12-11T06:38:59.070Z,92.31
2022-12-11T06:41:25.811Z,92.24
2022-12-11T06:43:52.493Z,92.22
2022-12-11T06:46:19.914Z,91.87
2022-12-11T06:48:47.603Z,91.74
2022-12-11T06:51:19.669Z,91.95
2022-12-11T06:53:56.903Z,91.50
2022-12-11T06:56:24.369Z,91.15
2022-12-11T06:58:51.950Z,91.40
2022-12-11T07:01:21.937Z,91.66
2022-12-11T07:03:49.186Z,91.77
2022-12-11T07:06:16.236Z,91.64
2022-12-11T07:08:43.590Z,91.77
2022-12-11T07:11:13.356Z,91.99
2022-12-11T07:13:40.308Z,91.87
2022-12-11T07:16:10.796Z,91.95
2022-12-11T07:18:42.098Z,91.85
2022-12-11T07:21:11.837Z,91.98
2022-12-11T07:23:38.330Z,91.41
2022-12-11T07:26:06.303Z,91.53
2022-12-11T07:28:33.229Z,91.37
2022-12-11T07:30:59.868Z,91.16
2022-12-11T07:33:26.430Z,91.00
2022-12-11T07:35:52.882Z,91.38
2022-12-11T07:38:19.308Z,91.04
2022-12-11T07:40:45.795Z,91.42
2022-12-11T07:43:12.201Z,91.50
2022-12-11T07:45:39.275Z,91.29
2022-12-11T07:48:06.267Z,91.35
2022-12-11T07:50:36.605Z,91.23
2022-12-11T07:53:06.112Z,91.13
2022-12-11T07:55:32.600Z,91.02
2022-12-11T07:57:59.036Z,91.07
2022-12-11T08:00:25.496Z,90.98
2022-12-11T08:02:52.019Z,91.02
2022-12-11T08:05:18.468Z,91.19
2022-12-11T08:07:44.915Z,91.04
2022-12-11T08:10:11.394Z,90.90
2022-12-11T08:12:38.480Z,90.87
2022-12-11T08:15:05.444Z,91.09
2022-12-11T08:17:36.631Z,91.25
2022-12-11T08:20:06.611Z,90.66
2022-12-11T08:22:34.171Z,90.60
2022-12-11T08:25:00.595Z,90.58
2022-12-11T08:27:27.014Z,90.45
2022-12-11T08:29:53.477Z,90.41
2022-12-11T08:32:19.936Z,90.61
2022-12-11T08:34:46.336Z,90.54
2022-12-11T08:37:13.637Z,90.76
2022-12-11T08:39:40.084Z,90.88
2022-12-11T08:42:07.106Z,90.80
2022-12-11T08:44:33.579Z,91.02
2022-12-11T08:47:00.006Z,90.54
2022-12-11T08:49:29.851Z,90.56
2022-12-11T08:51:59.228Z,90.26
2022-12-11T08:54:25.680Z,90.19
2022-12-11T08:56:56.414Z,90.66
2022-12-11T08:59:25.614Z,90.54
2022-12-11T09:01:52.461Z,90.79
2022-12-11T09:04:18.943Z,90.12
2022-12-11T09:06:45.405Z,90.26
2022-12-11T09:09:12.649Z,90.81
2022-12-11T09:11:39.075Z,90.66
2022-12-11T09:14:07.936Z,90.77
2022-12-11T09:16:37.777Z,90.37
2022-12-11T09:19:06.172Z,90.58
2022-12-11T09:21:32.784Z,90.36
2022-12-11T09:24:01.388Z,89.74
2022-12-11T09:26:30.036Z,89.05
2022-12-11T09:28:56.773Z,89.47
2022-12-11T09:31:28.897Z,89.39
2022-12-11T09:33:57.849Z,89.57
2022-12-11T09:36:24.485Z,89.98
2022-12-11T09:38:51.432Z,89.11
2022-12-11T09:41:20.963Z,89.07
2022-12-11T09:43:51.785Z,89.49
2022-12-11T09:46:21.617Z,89.80
2022-12-11T09:48:53.489Z,90.00
2022-12-11T09:51:30.468Z,89.78
2022-12-11T09:54:01.723Z,89.78
2022-12-11T09:56:57.731Z,90.03
2022-12-11T09:59:38.092Z,91.03
2022-12-11T10:02:16.841Z,90.74
2022-12-11T10:04:59.186Z,90.15
2022-12-11T10:07:33.919Z,89.84
2022-12-11T10:10:38.929Z,89.95
2022-12-11T10:13:34.819Z,89.34
2022-12-11T10:16:07.461Z,89.38
2022-12-11T10:18:34.286Z,89.32
2022-12-11T10:21:02.497Z,89.11
2022-12-11T10:23:42.017Z,88.85
2022-12-11T10:26:17.602Z,88.52
2022-12-11T10:28:44.489Z,88.20
2022-12-11T10:31:16.087Z,88.41
2022-12-11T10:34:02.616Z,88.34
2022-12-11T10:36:32.372Z,88.17
2022-12-11T10:38:59.258Z,88.03
2022-12-11T10:41:49.073Z,88.01
2022-12-11T10:44:27.348Z,87.96
2022-12-11T10:47:10.849Z,87.52
2022-12-11T10:49:42.633Z,87.86
2022-12-11T10:52:38.165Z,87.92
2022-12-11T10:55:08.023Z,88.02
2022-12-11T10:57:37.049Z,87.55
2022-12-11T11:00:08.714Z,87.33
2022-12-11T11:02:38.381Z,87.67
2022-12-11T11:05:17.972Z,87.36
2022-12-11T11:07:44.560Z,86.99
2022-12-11T11:10:11.035Z,86.58
2022-12-11T11:12:42.123Z,86.79
2022-12-11T11:15:17.585Z,87.00
2022-12-11T11:17:54.616Z,87.23
2022-12-11T11:20:26.247Z,87.30
2022-12-11T11:23:00.038Z,86.86
2022-12-11T11:25:29.405Z,87.13
2022-12-11T11:28:34.319Z,86.69
2022-12-11T11:31:08.879Z,86.30
2022-12-11T11:33:37.828Z,86.36
2022-12-11T11:36:07.015Z,86.17
2022-12-11T11:38:52.177Z,86.44
2022-12-11T11:41:31.735Z,86.31
2022-12-11T11:44:02.166Z,85.90
2022-12-11T11:46:49.177Z,86.36
2022-12-11T11:49:15.567Z,86.71
2022-12-11T11:51:52.604Z,86.37
2022-12-11T11:54:34.513Z,86.51
2022-12-11T11:57:33.326Z,86.65
2022-12-11T12:00:10.755Z,86.24
2022-12-11T12:02:37.801Z,86.49
2022-12-11T12:05:04.851Z,86.30
2022-12-11T12:07:50.695Z,85.98
2022-12-11T12:10:21.892Z,86.79
2022-12-11T12:13:03.293Z,86.83
2022-12-11T12:15:53.994Z,87.48
2022-12-11T12:18:38.847Z,87.58
2022-12-11T12:21:18.230Z,87.29
2022-12-11T12:23:57.132Z,87.20
2022-12-11T12:26:33.645Z,87.72
2022-12-11T12:29:17.963Z,87.47
2022-12-11T12:32:02.909Z,87.22
2022-12-11T12:34:44.441Z,88.14
2022-12-11T12:37:45.181Z,87.39
2022-12-11T12:40:17.875Z,87.84
2022-12-11T12:43:05.665Z,88.26
2022-12-11T12:45:35.201Z,88.40
2022-12-11T12:48:02.098Z,88.34
2022-12-11T12:50:43.573Z,88.85
2022-12-11T12:53:18.237Z,88.74
2022-12-11T12:55:46.550Z,88.08
2022-12-11T12:58:40.155Z,88.50
2022-12-11T13:01:15.476Z,88.56
2022-12-11T13:04:04.049Z,88.33
2022-12-11T13:06:34.956Z,88.32
2022-12-11T13:09:17.769Z,88.07
2022-12-11T13:11:45.717Z,88.36
2022-12-11T13:14:15.492Z,88.69
2022-12-11T13:16:45.247Z,88.34
2022-12-11T13:19:24.114Z,88.44
2022-12-11T13:22:00.032Z,88.52
2022-12-11T13:24:28.537Z,88.36
2022-12-11T13:26:55.689Z,88.00
2022-12-11T13:29:40.432Z,88.11
2022-12-11T13:32:09.878Z,87.83
2022-12-11T13:34:39.264Z,88.61
2022-12-11T13:37:07.454Z,87.81
2022-12-11T13:39:39.689Z,88.59
2022-12-11T13:42:20.292Z,87.97
2022-12-11T13:44:48.636Z,88.69
2022-12-11T13:47:18.656Z,88.25
2022-12-11T13:49:50.027Z,88.29
2022-12-11T13:52:23.049Z,87.76
2022-12-11T13:54:51.967Z,87.29
2022-12-11T13:57:23.163Z,87.58
2022-12-11T13:59:53.264Z,88.22
2022-12-11T14:02:25.577Z,87.50
2022-12-11T14:04:57.328Z,87.77
2022-12-11T14:07:28.776Z,87.59
2022-12-11T14:10:01.551Z,87.01
2022-12-11T14:12:30.349Z,87.01
2022-12-11T14:14:59.820Z,87.26
2022-12-11T14:17:29.710Z,87.35
2022-12-11T14:20:00.507Z,87.41
2022-12-11T14:22:29.104Z,87.33
2022-12-11T14:25:02.736Z,87.19
2022-12-11T14:27:29.716Z,86.88
2022-12-11T14:29:56.627Z,86.90
2022-12-11T14:32:37.024Z,87.32
2022-12-11T14:35:07.341Z,87.05
2022-12-11T14:37:37.099Z,87.29
2022-12-11T14:40:15.792Z,87.43
2022-12-11T14:42:51.758Z,86.57
2022-12-11T14:45:28.982Z,86.45
2022-12-11T14:47:58.320Z,86.79
2022-12-11T14:50:43.781Z,86.61
2022-12-11T14:53:15.465Z,85.95
2022-12-11T14:55:42.344Z,86.66
2022-12-11T14:58:22.350Z,86.29
2022-12-11T15:01:05.561Z,86.76
2022-12-11T15:03:34.817Z,87.07
2022-12-11T15:06:02.922Z,86.45
2022-12-11T15:08:35.197Z,86.88
2022-12-11T15:11:12.139Z,87.34
2022-12-11T15:14:00.223Z,86.33
2022-12-11T15:16:31.290Z,86.67
2022-12-11T15:18:58.893Z,86.88
2022-12-11T15:21:30.960Z,87.23
2022-12-11T15:23:59.530Z,87.35
2022-12-11T15:26:39.565Z,87.51
2022-12-11T15:29:36.898Z,87.70
2022-12-11T15:32:09.272Z,87.46
2022-12-11T15:34:42.370Z,86.63
2022-12-11T15:37:22.371Z,87.36
2022-12-11T15:39:48.929Z,86.92
2022-12-11T15:42:20.898Z,87.07
2022-12-11T15:44:47.560Z,86.82
2022-12-11T15:47:15.576Z,86.89
2022-12-11T15:49:42.375Z,87.03
2022-12-11T15:52:08.813Z,86.78
2022-12-11T15:54:35.280Z,86.69
2022-12-11T15:57:05.296Z,87.34
2022-12-11T15:59:33.057Z,86.67
2022-12-11T16:01:59.647Z,86.43
2022-12-11T16:04:26.332Z,86.88
2022-12-11T16:06:53.188Z,86.69
2022-12-11T16:09:19.642Z,86.18
2022-12-11T16:11:46.060Z,86.56
2022-12-11T16:14:12.501Z,86.97
2022-12-11T16:16:38.966Z,86.95
2022-12-11T16:19:05.439Z,87.62
2022-12-11T16:21:31.959Z,87.07
2022-12-11T16:23:58.424Z,87.49
2022-12-11T16:26:25.419Z,87.39
2022-12-11T16:28:51.836Z,87.51
2022-12-11T16:31:18.356Z,87.92
2022-12-11T16:33:44.914Z,87.77
2022-12-11T16:36:17.612Z,88.16
2022-12-11T16:38:51.413Z,88.17
2022-12-11T16:41:19.964Z,87.99
2022-12-11T16:43:46.379Z,87.65
2022-12-11T16:46:12.885Z,87.26
2022-12-11T16:48:39.450Z,88.15
2022-12-11T16:51:05.993Z,87.56
2022-12-11T16:53:32.467Z,87.76
2022-12-11T16:55:58.925Z,87.27
2022-12-11T16:58:25.386Z,87.80
2022-12-11T17:00:51.879Z,87.32
2022-12-11T17:03:19.488Z,86.57
2022-12-11T17:05:46.012Z,86.61
2022-12-11T17:08:12.546Z,86.35
2022-12-11T17:10:41.472Z,86.76
2022-12-11T17:13:08.065Z,86.18
2022-12-11T17:15:34.581Z,86.14
2022-12-11T17:18:01.067Z,85.96
2022-12-11T17:20:27.544Z,86.27
2022-12-11T17:22:54.040Z,86.34
2022-12-11T17:25:22.431Z,85.24
2022-12-11T17:27:49.555Z,84.98
2022-12-11T17:30:16.211Z,85.44
2022-12-11T17:32:42.724Z,85.24
2022-12-11T17:35:09.902Z,84.36
2022-12-11T17:37:36.498Z,84.92
2022-12-11T17:40:03.407Z,84.51
2022-12-11T17:42:29.854Z,84.43
2022-12-11T17:44:56.321Z,84.17
2022-12-11T17:47:23.684Z,83.63
2022-12-11T17:49:50.147Z,83.17
2022-12-11T17:52:16.613Z,83.22
2022-12-11T17:54:43.080Z,83.10
2022-12-11T17:57:09.784Z,82.52
2022-12-11T17:59:36.290Z,82.10
2022-12-11T18:02:02.876Z,82.11
2022-12-11T18:04:29.479Z,82.70
2022-12-11T18:06:56.053Z,82.52
2022-12-11T18:09:22.478Z,82.19
2022-12-11T18:11:48.977Z,81.97
2022-12-11T18:14:17.586Z,82.01
2022-12-11T18:16:44.294Z,81.84
2022-12-11T18:19:10.873Z,81.93
2022-12-11T18:21:41.371Z,82.40
2022-12-11T18:24:08.928Z,82.01
2022-12-11T18:26:37.424Z,82.73
2022-12-11T18:29:04.452Z,82.39
2022-12-11T18:31:31.031Z,82.40
2022-12-11T18:33:57.983Z,81.57
2022-12-11T18:36:24.429Z,82.08
2022-12-11T18:38:51.106Z,81.74
2022-12-11T18:41:18.948Z,81.82
2022-12-11T18:43:45.923Z,82.02
2022-12-11T18:46:15.691Z,81.78
2022-12-11T18:48:43.285Z,82.06
2022-12-11T18:51:13.123Z,82.33
2022-12-11T18:53:39.906Z,81.49
2022-12-11T18:56:08.715Z,81.23
2022-12-11T18:58:35.178Z,81.65
2022-12-11T19:01:09.953Z,81.84
2022-12-11T19:03:37.187Z,81.63
2022-12-11T19:06:12.625Z,81.05
2022-12-11T19:08:39.682Z,81.37
2022-12-11T19:11:07.073Z,81.48
2022-12-11T19:13:34.193Z,81.43
2022-12-11T19:16:00.955Z,81.21
2022-12-11T19:18:27.857Z,81.48
2022-12-11T19:21:03.095Z,81.11
2022-12-11T19:23:34.752Z,80.18
2022-12-11T19:26:01.799Z,80.17
2022-12-11T19:28:30.042Z,79.84
2022-12-11T19:30:56.993Z,80.63
2022-12-11T19:33:23.653Z,80.76
2022-12-11T19:35:50.107Z,80.34
2022-12-11T19:38:16.638Z,81.36
2022-12-11T19:40:44.723Z,81.88
2022-12-11T19:43:11.721Z,81.95
2022-12-11T19:45:38.476Z,81.83
2022-12-11T19:48:05.583Z,81.55
2022-12-11T19:50:32.079Z,81.42
2022-12-11T19:52:58.539Z,81.41
2022-12-11T19:55:25.020Z,81.35
2022-12-11T19:57:51.498Z,80.94
2022-12-11T20:00:18.849Z,81.34
2022-12-11T20:02:45.345Z,81.47
2022-12-11T20:05:12.139Z,81.73
2022-12-11T20:07:38.902Z,82.40
2022-12-11T20:10:06.111Z,82.44
2022-12-11T20:12:32.660Z,83.03
2022-12-11T20:14:59.131Z,82.63
2022-12-11T20:17:25.679Z,82.98
2022-12-11T20:19:52.389Z,82.72
2022-12-11T20:22:18.854Z,82.77
2022-12-11T20:24:45.666Z,82.88
2022-12-11T20:27:12.564Z,82.83
2022-12-11T20:29:39.412Z,83.04
2022-12-11T20:32:07.320Z,83.11
2022-12-11T20:34:33.962Z,83.13
2022-12-11T20:37:00.471Z,83.30
2022-12-11T20:39:27.248Z,83.09
2022-12-11T20:41:53.693Z,82.84
2022-12-11T20:44:20.244Z,82.83
2022-12-11T20:46:46.704Z,83.28
2022-12-11T20:49:13.308Z,83.40
2022-12-11T20:51:40.825Z,83.35
2022-12-11T20:54:07.356Z,83.63
2022-12-11T20:56:33.990Z,83.60
2022-12-11T20:59:00.816Z,83.73
2022-12-11T21:01:30.402Z,83.17
2022-12-11T21:03:57.870Z,83.52
2022-12-11T21:06:28.401Z,83.17
2022-12-11T21:08:54.905Z,83.01
2022-12-11T21:11:21.694Z,83.43
2022-12-11T21:13:48.214Z,82.99
2022-12-11T21:16:14.740Z,83.41
2022-12-11T21:18:43.420Z,83.43
2022-12-11T21:21:10.128Z,83.35
2022-12-11T21:23:36.629Z,83.65
2022-12-11T21:26:03.356Z,83.12
2022-12-11T21:28:35.234Z,83.35
2022-12-11T21:31:04.803Z,82.73
2022-12-11T21:33:31.384Z,83.20
2022-12-11T21:35:59.450Z,83.27
2022-12-11T21:38:26.144Z,83.00
2022-12-11T21:40:53.509Z,83.54
2022-12-11T21:43:20.208Z,83.24
2022-12-11T21:46:02.453Z,83.41
2022-12-11T21:48:29.239Z,83.33
2022-12-11T21:50:56.088Z,83.13
2022-12-11T21:53:22.547Z,83.13
2022-12-11T21:55:48.973Z,83.50
2022-12-11T21:58:15.655Z,83.20
2022-12-11T22:00:42.283Z,83.14
2022-12-11T22:03:08.841Z,83.74
2022-12-11T22:05:35.313Z,83.38
2022-12-11T22:08:02.249Z,83.82
2022-12-11T22:10:29.242Z,83.71
2022-12-11T22:12:55.784Z,84.13
2022-12-11T22:15:22.353Z,83.93
2022-12-11T22:17:48.863Z,83.85
2022-12-11T22:20:15.417Z,84.31
2022-12-11T22:22:42.233Z,84.43
2022-12-11T22:25:09.643Z,84.35
2022-12-11T22:27:36.480Z,84.10
2022-12-11T22:30:03.749Z,84.30
2022-12-11T22:32:30.305Z,84.24
2022-12-11T22:34:57.727Z,84.48
2022-12-11T22:37:25.309Z,84.63
2022-12-11T22:39:51.861Z,84.38
2022-12-11T22:42:18.398Z,84.78
2022-12-11T22:44:44.956Z,85.10
2022-12-11T22:47:11.570Z,84.94
2022-12-11T22:49:38.033Z,84.43
2022-12-11T22:52:04.869Z,84.53
2022-12-11T22:54:31.376Z,84.87
2022-12-11T22:56:57.855Z,84.85
2022-12-11T22:59:24.373Z,85.13
2022-12-11T23:01:50.888Z,84.92
2022-12-11T23:04:17.387Z,84.89
2022-12-11T23:06:43.839Z,85.29
2022-12-11T23:09:10.917Z,85.29
2022-12-11T23:11:38.424Z,85.37
2022-12-11T23:14:07.746Z,85.16
2022-12-11T23:16:34.522Z,84.88
2022-12-11T23:19:01.120Z,84.92
2022-12-11T23:21:28.589Z,84.71
2022-12-11T23:23:56.261Z,85.43
2022-12-11T23:26:23.158Z,85.19
2022-12-11T23:28:50.206Z,85.17
2022-12-11T23:31:17.883Z,85.00
2022-12-11T23:33:44.959Z,85.02
2022-12-11T23:36:12.266Z,85.02
2022-12-11T23:38:40.497Z,85.50
2022-12-11T23:41:08.472Z,85.43
2022-12-11T23:43:36.232Z,84.95
2022-12-11T23:46:13.782Z,85.02
2022-12-11T23:48:40.945Z,84.93
2022-12-11T23:51:09.138Z,84.94
2022-12-11T23:53:35.725Z,84.75
2022-12-11T23:56:08.492Z,84.82
2022-12-11T23:58:37.006Z,84.57
